Time;durP1;ratioP1;P1;durP2;ratioP2;P2;SDS_P1;SDS_P2;PMS_P1;PMS_P2;Temp;Humidity;BMP_temperature;BMP_pressure;BME280_temperature;BME280_humidity;BME280_pressure;Samples;Min_cycle;Max_cycle;Signal;HPM_P1;HPM_P2
2022/09/13 00:01:44;;;;;;;7.97;6.37;;;16.90;79.90;;;;;;5003704;28;20465;-47
2022/09/13 00:04:11;;;;;;;7.00;6.30;;;16.90;79.90;;;;;;5002204;28;20494;-47
2022/09/13 00:06:37;;;;;;;9.30;6.77;;;16.80;80.10;;;;;;5001738;28;20504;-47
2022/09/13 00:09:04;;;;;;;10.93;7.40;;;16.60;80.50;;;;;;5001737;28;20522;-47
2022/09/13 00:11:31;;;;;;;16.20;11.20;;;16.60;80.80;;;;;;4983106;28;20918;-48
2022/09/13 00:13:58;;;;;;;16.73;10.70;;;16.60;80.70;;;;;;4980502;28;20468;-47
2022/09/13 00:16:27;;;;;;;13.43;9.53;;;16.60;80.80;;;;;;4998717;28;20488;-47
2022/09/13 00:18:55;;;;;;;14.70;9.07;;;16.60;80.80;;;;;;4998951;28;20555;-47
2022/09/13 00:21:23;;;;;;;9.77;7.83;;;16.60;81.00;;;;;;5001055;28;20558;-47
2022/09/13 00:23:52;;;;;;;12.60;8.50;;;16.60;80.90;;;;;;4983838;28;20471;-47
2022/09/13 00:26:22;;;;;;;12.40;7.70;;;16.70;80.60;;;;;;4979817;28;20583;-47
2022/09/13 00:28:55;;;;;;;8.80;7.37;;;16.70;80.60;;;;;;4985223;28;20572;-47
2022/09/13 00:31:24;;;;;;;11.10;7.97;;;16.70;80.50;;;;;;5002189;28;21032;-47
2022/09/13 00:33:50;;;;;;;8.67;6.67;;;16.70;80.50;;;;;;5005203;28;20878;-47
2022/09/13 00:36:18;;;;;;;13.30;7.77;;;16.70;80.50;;;;;;4982964;28;20466;-47
2022/09/13 00:38:44;;;;;;;8.33;7.27;;;16.60;80.80;;;;;;4994555;28;20885;-47
2022/09/13 00:41:17;;;;;;;10.10;6.93;;;16.60;81.30;;;;;;4980671;28;20472;-47
2022/09/13 00:43:47;;;;;;;8.20;7.17;;;16.60;80.90;;;;;;4983991;28;20472;-47
2022/09/13 00:46:36;;;;;;;12.70;8.10;;;16.60;81.00;;;;;;4999091;28;20599;-48
2022/09/13 00:49:33;;;;;;;9.63;7.00;;;16.30;81.90;;;;;;4982901;28;20500;-48
2022/09/13 00:52:05;;;;;;;11.53;7.47;;;16.40;82.10;;;;;;4985929;28;20468;-48
2022/09/13 00:54:44;;;;;;;9.47;7.40;;;16.40;81.70;;;;;;5000987;28;21057;-48
2022/09/13 00:57:12;;;;;;;8.40;6.70;;;16.20;82.20;;;;;;5002195;28;20512;-48
2022/09/13 01:00:13;;;;;;;8.07;7.00;;;16.30;81.80;;;;;;5000026;28;21152;-47
2022/09/13 01:02:47;;;;;;;7.87;7.17;;;16.40;81.40;;;;;;5001465;28;20491;-47
2022/09/13 01:05:17;;;;;;;7.10;6.40;;;16.30;81.70;;;;;;5001363;28;20460;-47
2022/09/13 01:07:45;;;;;;;11.43;6.93;;;16.40;81.60;;;;;;4999141;28;20516;-47
2022/09/13 01:10:11;;;;;;;10.10;7.00;;;16.40;81.50;;;;;;4983444;28;20946;-47
2022/09/13 01:13:05;;;;;;;8.70;6.50;;;16.40;81.40;;;;;;4996716;28;20460;-47
2022/09/13 01:15:31;;;;;;;6.73;6.13;;;16.40;81.20;;;;;;4996424;28;21118;-47
2022/09/13 01:17:58;;;;;;;7.73;6.50;;;16.40;81.30;;;;;;4997650;28;20465;-47
2022/09/13 01:20:43;;;;;;;10.53;8.10;;;16.20;81.90;;;;;;4999612;28;20460;-47
2022/09/13 01:23:32;;;;;;;7.57;6.80;;;16.20;82.10;;;;;;4993181;28;20880;-48
2022/09/13 01:26:53;;;;;;;8.23;7.30;;;16.30;81.60;;;;;;4998523;28;20584;-48
2022/09/13 01:29:41;;;;;;;10.90;9.10;;;16.20;81.50;;;;;;4947232;28;20502;-48
2022/09/13 01:32:27;;;;;;;7.77;6.57;;;15.90;82.40;;;;;;4985405;28;20906;-48
2022/09/13 01:35:39;;;;;;;8.53;7.00;;;15.60;83.50;;;;;;4999715;28;20468;-47
2022/09/13 01:38:05;;;;;;;12.30;7.50;;;15.50;84.00;;;;;;4999974;28;20456;-47
2022/09/13 01:40:47;;;;;;;10.53;7.40;;;15.70;83.70;;;;;;4999732;28;20456;-47
2022/09/13 01:43:57;;;;;;;10.53;6.97;;;15.80;83.10;;;;;;4999688;28;20460;-47
2022/09/13 01:46:45;;;;;;;8.53;6.80;;;15.90;82.50;;;;;;4976888;28;20503;-47
2022/09/13 01:49:26;;;;;;;8.97;7.63;;;16.00;82.30;;;;;;4984992;28;20489;-47
2022/09/13 01:52:08;;;;;;;8.20;6.80;;;16.00;82.20;;;;;;4998175;28;20828;-47
2022/09/13 01:54:44;;;;;;;8.87;7.10;;;16.00;82.00;;;;;;4994473;28;20469;-47
2022/09/13 01:57:30;;;;;;;9.80;8.00;;;16.00;82.00;;;;;;4999195;28;20489;-47
2022/09/13 02:00:14;;;;;;;9.20;7.40;;;16.00;81.70;;;;;;4995898;28;20563;-47
2022/09/13 02:02:52;;;;;;;9.70;8.37;;;16.00;81.60;;;;;;5002413;28;20497;-47
2022/09/13 02:05:46;;;;;;;12.20;8.13;;;16.00;81.40;;;;;;5005498;28;20483;-47
2022/09/13 02:08:26;;;;;;;9.30;7.37;;;15.70;82.00;;;;;;5003216;28;20523;-47
2022/09/13 02:11:22;;;;;;;10.53;8.30;;;15.50;82.90;;;;;;5003312;28;20961;-47
2022/09/13 02:14:04;;;;;;;11.90;7.83;;;15.20;83.40;;;;;;5004695;28;20924;-47
2022/09/13 02:16:37;;;;;;;9.83;7.77;;;15.00;84.50;;;;;;5005586;28;20527;-47
2022/09/13 02:19:15;;;;;;;9.67;7.63;;;15.00;84.70;;;;;;4986806;28;20859;-47
2022/09/13 02:21:46;;;;;;;10.30;7.60;;;15.10;84.60;;;;;;5004048;28;20546;-48
2022/09/13 02:24:18;;;;;;;13.73;8.00;;;15.40;83.50;;;;;;5023824;28;20488;-48
2022/09/13 02:26:48;;;;;;;8.33;7.23;;;15.40;83.20;;;;;;5019989;28;20467;-48
2022/09/13 02:29:18;;;;;;;8.57;7.33;;;15.60;82.70;;;;;;5007450;28;20851;-49
2022/09/13 02:31:53;;;;;;;8.60;7.70;;;15.70;82.20;;;;;;4987454;28;20457;-49
2022/09/13 02:34:30;;;;;;;8.93;7.70;;;15.80;82.10;;;;;;4981791;28;20893;-49
2022/09/13 02:36:58;;;;;;;10.37;8.63;;;15.80;82.20;;;;;;5003374;28;20944;-49
2022/09/13 02:39:28;;;;;;;8.93;7.90;;;15.70;82.40;;;;;;4983961;28;20464;-49
2022/09/13 02:42:07;;;;;;;10.60;7.33;;;15.70;82.60;;;;;;5003719;28;20949;-49
2022/09/13 02:44:44;;;;;;;10.30;7.43;;;15.70;82.60;;;;;;5006580;28;20487;-49
2022/09/13 02:47:30;;;;;;;12.00;9.00;;;15.70;82.80;;;;;;5001668;28;20494;-49
2022/09/13 02:50:22;;;;;;;8.77;7.87;;;15.80;82.50;;;;;;5001669;28;20496;-49
2022/09/13 02:53:02;;;;;;;10.10;8.33;;;15.80;82.40;;;;;;4987482;28;20985;-49
2022/09/13 02:55:43;;;;;;;9.57;8.57;;;15.80;82.40;;;;;;5003072;28;20492;-49
2022/09/13 02:58:24;;;;;;;11.83;7.23;;;15.60;83.00;;;;;;5000069;28;20567;-49
2022/09/13 03:00:54;;;;;;;11.57;9.00;;;15.60;83.20;;;;;;4987087;28;20460;-49
2022/09/13 03:03:21;;;;;;;9.90;8.90;;;15.70;83.00;;;;;;5006040;28;20464;-49
2022/09/13 03:05:48;;;;;;;9.23;8.07;;;15.70;83.20;;;;;;5003376;28;20457;-49
2022/09/13 03:08:17;;;;;;;12.10;8.77;;;15.60;83.30;;;;;;5005482;28;20986;-49
2022/09/13 03:11:07;;;;;;;8.80;7.80;;;15.50;83.80;;;;;;5002195;28;21021;-49
2022/09/13 03:13:48;;;;;;;13.40;8.57;;;15.70;83.50;;;;;;5006101;28;20453;-49
2022/09/13 03:16:44;;;;;;;9.13;7.40;;;15.80;83.10;;;;;;4998500;28;20507;-49
2022/09/13 03:19:48;;;;;;;8.47;7.67;;;15.90;82.80;;;;;;4980725;28;20485;-49
2022/09/13 03:22:29;;;;;;;8.80;7.90;;;16.00;82.80;;;;;;5001197;28;20460;-49
2022/09/13 03:25:32;;;;;;;12.27;8.77;;;15.90;82.50;;;;;;5002264;28;20506;-49
2022/09/13 03:28:21;;;;;;;10.23;7.43;;;15.70;83.20;;;;;;5001570;28;20547;-49
2022/09/13 03:30:57;;;;;;;10.10;7.30;;;15.80;83.50;;;;;;5001408;28;20515;-49
2022/09/13 03:34:05;;;;;;;8.90;6.93;;;15.90;83.20;;;;;;5000689;28;20542;-49
2022/09/13 03:36:36;;;;;;;9.67;7.03;;;16.00;83.20;;;;;;4997874;28;20508;-49
2022/09/13 03:39:20;;;;;;;9.53;7.80;;;16.00;82.80;;;;;;5000602;28;20472;-49
2022/09/13 03:41:55;;;;;;;9.70;7.70;;;16.10;82.60;;;;;;5004851;28;20554;-49
2022/09/13 03:44:23;;;;;;;9.37;7.97;;;16.10;82.40;;;;;;5004445;28;20505;-49
2022/09/13 03:46:56;;;;;;;11.00;8.23;;;16.10;82.30;;;;;;4999841;28;20514;-49
2022/09/13 03:49:25;;;;;;;9.33;7.73;;;16.10;82.50;;;;;;5003586;28;20500;-49
2022/09/13 03:51:53;;;;;;;10.20;7.67;;;16.10;82.50;;;;;;4998005;28;20484;-49
2022/09/13 03:54:24;;;;;;;9.83;8.07;;;16.10;82.40;;;;;;4998180;28;22742;-49
2022/09/13 03:57:15;;;;;;;8.67;7.70;;;16.10;82.50;;;;;;5001508;28;20980;-50
2022/09/13 03:59:47;;;;;;;10.50;8.53;;;16.20;82.50;;;;;;5001086;28;20496;-49
2022/09/13 04:02:15;;;;;;;8.53;7.47;;;16.20;82.50;;;;;;5003112;28;20515;-49
2022/09/13 04:04:43;;;;;;;11.37;7.80;;;16.20;82.50;;;;;;4983557;28;20464;-49
2022/09/13 04:07:12;;;;;;;9.03;8.10;;;16.20;82.50;;;;;;5003833;28;20457;-49
2022/09/13 04:09:39;;;;;;;10.57;8.80;;;16.20;82.60;;;;;;4997917;28;20519;-49
2022/09/13 04:12:08;;;;;;;9.00;8.00;;;16.20;82.70;;;;;;4968978;28;20460;-49
2022/09/13 04:14:35;;;;;;;9.60;7.17;;;16.20;82.70;;;;;;4986367;28;20539;-49
2022/09/13 04:17:02;;;;;;;11.13;7.80;;;16.20;82.70;;;;;;5000858;28;20488;-49
2022/09/13 04:19:30;;;;;;;9.00;8.10;;;16.20;82.80;;;;;;5002086;28;20469;-49
2022/09/13 04:21:57;;;;;;;10.67;8.37;;;16.20;83.00;;;;;;4979561;28;20555;-49
2022/09/13 04:24:25;;;;;;;9.80;8.27;;;16.20;83.10;;;;;;5000000;28;20958;-49
2022/09/13 04:26:53;;;;;;;9.33;7.80;;;16.20;83.20;;;;;;5003731;28;20522;-49
2022/09/13 04:29:21;;;;;;;10.43;7.30;;;16.20;83.00;;;;;;5003697;28;20602;-49
2022/09/13 04:31:49;;;;;;;11.50;8.03;;;16.20;82.80;;;;;;4998957;28;20498;-49
2022/09/13 04:34:17;;;;;;;9.63;8.63;;;16.30;82.80;;;;;;4997713;28;20462;-49
2022/09/13 04:36:45;;;;;;;9.93;7.93;;;16.20;82.80;;;;;;4991676;28;20488;-49
2022/09/13 04:39:14;;;;;;;11.70;8.83;;;16.10;83.30;;;;;;4999479;28;20569;-49
2022/09/13 04:41:43;;;;;;;10.67;8.10;;;16.10;83.40;;;;;;4999762;28;20522;-49
2022/09/13 04:44:10;;;;;;;10.60;8.33;;;16.20;83.60;;;;;;5001378;28;20539;-49
2022/09/13 04:46:37;;;;;;;10.63;7.83;;;16.20;83.50;;;;;;4999712;28;20472;-49
2022/09/13 04:49:03;;;;;;;12.17;8.60;;;16.20;83.40;;;;;;4984925;28;21061;-49
2022/09/13 04:51:30;;;;;;;8.07;7.30;;;16.20;83.10;;;;;;4979742;28;20563;-49
2022/09/13 04:53:57;;;;;;;12.70;8.43;;;16.20;83.10;;;;;;4999788;28;21240;-49
2022/09/13 04:56:25;;;;;;;11.63;8.27;;;16.20;83.10;;;;;;5004349;28;21028;-49
2022/09/13 04:58:53;;;;;;;9.53;8.50;;;16.20;83.20;;;;;;4971761;28;20488;-49
2022/09/13 05:01:22;;;;;;;10.97;9.83;;;16.00;83.90;;;;;;5002567;28;20495;-50
2022/09/13 05:03:53;;;;;;;11.40;8.70;;;15.70;84.90;;;;;;4995487;28;20465;-49
2022/09/13 05:06:21;;;;;;;12.07;8.93;;;15.60;85.40;;;;;;4996655;28;20920;-49
2022/09/13 05:08:54;;;;;;;10.53;8.70;;;15.80;85.10;;;;;;4982344;28;21012;-50
2022/09/13 05:11:22;;;;;;;9.60;8.60;;;15.90;84.50;;;;;;4997649;28;20555;-49
2022/09/13 05:13:54;;;;;;;11.87;9.00;;;16.00;84.30;;;;;;4979151;28;20500;-49
2022/09/13 05:16:22;;;;;;;11.50;8.60;;;16.00;84.10;;;;;;5000919;28;21047;-50
2022/09/13 05:18:50;;;;;;;11.10;8.60;;;16.10;83.90;;;;;;5001129;28;20478;-49
2022/09/13 05:21:17;;;;;;;9.63;8.73;;;16.00;83.80;;;;;;4984618;28;20779;-49
2022/09/13 05:23:47;;;;;;;10.17;8.13;;;16.00;84.10;;;;;;4997039;28;20818;-49
2022/09/13 05:26:14;;;;;;;13.40;8.20;;;16.10;84.20;;;;;;4976079;28;20559;-49
2022/09/13 05:28:41;;;;;;;9.43;8.00;;;16.20;84.00;;;;;;4997291;28;20547;-50
2022/09/13 05:31:23;;;;;;;10.53;8.23;;;16.20;83.90;;;;;;4979563;28;20468;-49
2022/09/13 05:33:57;;;;;;;13.70;9.40;;;16.30;83.70;;;;;;4978986;28;20452;-50
2022/09/13 05:36:25;;;;;;;9.10;8.20;;;16.30;83.50;;;;;;4998541;28;20468;-49
2022/09/13 05:38:53;;;;;;;12.83;8.70;;;16.40;83.40;;;;;;5003189;28;20568;-49
2022/09/13 05:41:40;;;;;;;10.73;8.17;;;16.40;83.30;;;;;;4985300;28;20811;-49
2022/09/13 05:44:07;;;;;;;11.20;9.10;;;16.40;83.30;;;;;;4995116;28;20917;-49
2022/09/13 05:46:39;;;;;;;10.53;8.20;;;16.40;83.30;;;;;;4995913;28;21012;-49
2022/09/13 05:49:06;;;;;;;12.10;8.90;;;16.30;83.50;;;;;;4986528;28;20586;-49
2022/09/13 05:51:32;;;;;;;8.83;7.93;;;16.20;83.80;;;;;;5001060;28;20949;-49
2022/09/13 05:53:59;;;;;;;11.40;8.57;;;16.00;84.50;;;;;;5003000;28;20503;-50
2022/09/13 05:56:28;;;;;;;9.53;8.30;;;16.00;84.80;;;;;;5001343;28;20959;-49
2022/09/13 05:58:55;;;;;;;10.63;8.77;;;16.10;84.60;;;;;;4983690;28;20892;-49
2022/09/13 06:01:25;;;;;;;13.17;8.50;;;16.30;84.30;;;;;;5005525;28;20501;-49
2022/09/13 06:03:58;;;;;;;10.83;8.40;;;16.30;84.20;;;;;;5005533;28;20572;-50
2022/09/13 06:06:25;;;;;;;11.07;8.20;;;16.40;83.90;;;;;;5004959;28;20508;-50
2022/09/13 06:08:53;;;;;;;11.10;8.90;;;16.30;83.80;;;;;;4996757;28;21216;-50
2022/09/13 06:11:20;;;;;;;12.07;7.53;;;16.20;84.10;;;;;;4998232;28;20503;-49
2022/09/13 06:13:47;;;;;;;9.53;8.23;;;16.40;84.20;;;;;;5003756;28;20515;-49
2022/09/13 06:16:15;;;;;;;11.67;10.40;;;16.40;84.00;;;;;;4998072;28;21029;-49
2022/09/13 06:18:43;;;;;;;15.70;8.30;;;16.50;83.90;;;;;;4983230;28;20551;-49
2022/09/13 06:21:16;;;;;;;8.70;7.80;;;16.50;83.90;;;;;;5001750;28;20518;-50
2022/09/13 06:23:47;;;;;;;12.57;8.30;;;16.50;83.90;;;;;;5000169;28;20490;-49
2022/09/13 06:26:16;;;;;;;9.30;8.30;;;16.60;83.90;;;;;;5003278;28;20579;-50
2022/09/13 06:28:50;;;;;;;8.60;6.73;;;16.60;83.80;;;;;;4997709;28;20925;-49
2022/09/13 06:31:19;;;;;;;8.67;7.73;;;16.70;83.80;;;;;;5002810;28;20471;-50
2022/09/13 06:33:46;;;;;;;8.97;7.30;;;16.80;83.60;;;;;;5004603;28;20861;-50
2022/09/13 06:36:18;;;;;;;11.53;8.50;;;16.80;83.70;;;;;;4975540;28;20966;-50
2022/09/13 06:38:46;;;;;;;9.57;7.67;;;16.70;83.50;;;;;;4983192;28;20972;-49
2022/09/13 06:41:14;;;;;;;11.70;7.43;;;16.80;83.40;;;;;;5004159;28;20508;-50
2022/09/13 06:43:41;;;;;;;8.33;6.30;;;16.80;83.20;;;;;;4985777;28;20494;-49
2022/09/13 06:46:19;;;;;;;7.43;6.50;;;16.90;82.70;;;;;;5002604;28;20809;-49
2022/09/13 06:48:51;;;;;;;8.07;6.20;;;16.90;82.70;;;;;;5004175;28;20488;-50
2022/09/13 06:51:21;;;;;;;9.80;6.70;;;16.90;82.70;;;;;;4984413;28;20460;-50
2022/09/13 06:53:48;;;;;;;9.33;7.20;;;16.90;82.60;;;;;;5003525;28;20496;-49
2022/09/13 06:56:16;;;;;;;8.70;7.40;;;16.90;82.60;;;;;;5000124;28;20546;-50
2022/09/13 06:58:46;;;;;;;9.70;8.17;;;16.90;82.50;;;;;;5005666;28;20910;-50
2022/09/13 07:01:21;;;;;;;9.97;7.20;;;17.00;82.40;;;;;;5002256;28;20496;-50
2022/09/13 07:03:54;;;;;;;10.87;6.50;;;17.00;82.30;;;;;;4988529;28;20834;-50
2022/09/13 07:06:23;;;;;;;8.10;6.93;;;17.00;82.40;;;;;;5000698;28;20465;-49
2022/09/13 07:08:51;;;;;;;8.80;7.70;;;17.00;82.30;;;;;;5002171;28;20528;-49
2022/09/13 07:11:20;;;;;;;9.17;6.97;;;17.00;82.40;;;;;;4986270;28;20797;-49
2022/09/13 07:13:51;;;;;;;8.50;7.00;;;17.00;82.40;;;;;;5000949;28;20769;-49
2022/09/13 07:16:19;;;;;;;7.33;6.40;;;17.10;82.40;;;;;;5004128;28;20519;-49
2022/09/13 07:18:54;;;;;;;6.33;5.73;;;17.10;82.40;;;;;;4983372;28;20469;-49
2022/09/13 07:21:21;;;;;;;8.47;7.30;;;17.10;82.40;;;;;;4997993;28;20530;-49
2022/09/13 07:23:49;;;;;;;8.50;7.30;;;17.00;82.80;;;;;;5004902;28;20492;-50
2022/09/13 07:26:16;;;;;;;9.83;7.60;;;17.00;82.80;;;;;;4982055;28;20500;-49
2022/09/13 07:28:45;;;;;;;8.47;6.87;;;17.10;82.70;;;;;;5002690;28;22235;-49
2022/09/13 07:31:15;;;;;;;12.20;7.90;;;17.00;83.10;;;;;;4998132;28;20469;-49
2022/09/13 07:33:43;;;;;;;11.77;8.80;;;16.90;84.10;;;;;;4999773;28;20980;-49
2022/09/13 07:36:10;;;;;;;10.83;9.47;;;16.90;84.50;;;;;;4990951;28;20988;-50
2022/09/13 07:38:39;;;;;;;13.30;10.20;;;16.80;85.00;;;;;;5001032;28;20586;-50
2022/09/13 07:41:11;;;;;;;11.30;9.77;;;16.80;86.30;;;;;;5002289;28;20518;-49
2022/09/13 07:43:38;;;;;;;11.80;10.33;;;16.60;85.80;;;;;;4995886;28;20520;-49
2022/09/13 07:46:08;;;;;;;10.43;8.60;;;16.60;86.90;;;;;;4989437;28;20461;-50
2022/09/13 07:48:37;;;;;;;11.40;8.70;;;16.70;86.80;;;;;;5005434;28;20552;-50
2022/09/13 07:51:27;;;;;;;13.70;9.80;;;16.70;87.00;;;;;;4982344;28;20468;-50
2022/09/13 07:53:56;;;;;;;14.07;10.03;;;16.70;87.30;;;;;;5001970;28;20493;-49
2022/09/13 07:56:29;;;;;;;11.87;9.03;;;16.80;87.00;;;;;;5000700;28;20470;-50
2022/09/13 07:58:59;;;;;;;11.50;9.87;;;16.80;86.90;;;;;;5003782;28;20500;-50
2022/09/13 08:01:37;;;;;;;12.33;10.80;;;16.90;86.80;;;;;;4987529;28;20475;-49
2022/09/13 08:04:07;;;;;;;13.90;10.60;;;17.00;87.50;;;;;;5008117;28;21009;-48
2022/09/13 08:06:36;;;;;;;17.80;11.67;;;17.00;87.00;;;;;;5004816;28;20468;-49
2022/09/13 08:09:04;;;;;;;13.97;11.70;;;17.10;86.70;;;;;;5002017;28;21072;-48
2022/09/13 08:11:33;;;;;;;11.47;8.70;;;17.20;86.60;;;;;;4989289;28;20460;-49
2022/09/13 08:14:01;;;;;;;15.37;11.27;;;17.30;86.20;;;;;;5001721;28;20999;-48
2022/09/13 08:16:29;;;;;;;13.57;11.47;;;17.30;85.80;;;;;;4997883;28;20469;-49
2022/09/13 08:19:00;;;;;;;13.97;11.90;;;17.40;85.50;;;;;;5001326;28;20488;-48
2022/09/13 08:21:32;;;;;;;12.43;11.00;;;17.50;85.50;;;;;;4998715;28;20915;-47
2022/09/13 08:23:59;;;;;;;13.43;10.37;;;17.50;85.40;;;;;;5000243;28;20903;-49
2022/09/13 08:26:28;;;;;;;14.27;10.60;;;17.60;85.30;;;;;;4997872;28;20519;-50
2022/09/13 08:28:57;;;;;;;15.50;11.33;;;17.70;84.90;;;;;;4999652;28;20503;-50
2022/09/13 08:31:24;;;;;;;14.30;10.97;;;17.70;84.80;;;;;;4981419;28;20492;-49
2022/09/13 08:33:51;;;;;;;15.30;10.63;;;17.80;84.40;;;;;;5002383;28;20452;-50
2022/09/13 08:36:18;;;;;;;17.70;10.53;;;17.80;84.20;;;;;;4996884;28;20852;-50
2022/09/13 08:38:47;;;;;;;14.43;10.90;;;17.80;84.10;;;;;;5000625;28;20491;-50
2022/09/13 08:41:36;;;;;;;15.10;11.30;;;17.80;84.40;;;;;;5002235;28;20488;-47
2022/09/13 08:44:32;;;;;;;11.87;10.63;;;17.70;85.40;;;;;;4999490;28;20838;-47
2022/09/13 08:47:05;;;;;;;18.30;13.00;;;17.80;85.30;;;;;;4983213;28;20500;-47
2022/09/13 08:49:39;;;;;;;14.23;11.17;;;17.80;85.90;;;;;;5000000;28;20578;-48
2022/09/13 08:52:27;;;;;;;16.87;12.77;;;17.70;87.60;;;;;;4997600;28;20531;-47
2022/09/13 08:54:54;;;;;;;15.20;11.80;;;17.60;87.60;;;;;;5001511;28;20823;-47
2022/09/13 08:57:57;;;;;;;15.67;11.97;;;17.70;87.60;;;;;;4993146;28;20481;-47
2022/09/13 09:00:45;;;;;;;15.10;12.10;;;17.50;88.20;;;;;;4993515;28;20504;-47
2022/09/13 09:03:27;;;;;;;14.63;11.80;;;17.50;88.50;;;;;;4978342;28;20468;-47
2022/09/13 09:05:53;;;;;;;19.87;12.73;;;17.50;88.10;;;;;;4999706;28;20510;-48
2022/09/13 09:08:41;;;;;;;19.00;12.50;;;17.50;88.20;;;;;;4996782;28;21168;-47
2022/09/13 09:11:29;;;;;;;15.47;12.87;;;17.50;88.40;;;;;;4995251;28;20574;-48
2022/09/13 09:14:19;;;;;;;14.53;12.03;;;17.60;88.50;;;;;;4978265;28;20518;-47
2022/09/13 09:16:52;;;;;;;17.50;12.63;;;17.60;88.40;;;;;;5002824;28;20479;-47
2022/09/13 09:19:34;;;;;;;19.20;13.50;;;17.70;88.30;;;;;;5002087;28;20518;-47
2022/09/13 09:22:08;;;;;;;13.47;11.50;;;17.70;88.10;;;;;;4986448;28;20462;-47
2022/09/13 09:24:37;;;;;;;12.47;11.17;;;17.80;87.90;;;;;;5002538;28;20469;-47
2022/09/13 09:27:18;;;;;;;18.97;13.40;;;17.80;87.70;;;;;;4988488;28;20794;-47
2022/09/13 09:29:47;;;;;;;18.00;13.70;;;17.90;87.80;;;;;;5004306;28;20480;-47
2022/09/13 09:32:26;;;;;;;14.77;11.30;;;17.90;87.70;;;;;;4986579;28;20459;-50
2022/09/13 09:35:14;;;;;;;12.60;10.70;;;17.90;87.50;;;;;;4986212;28;20460;-50
2022/09/13 09:37:44;;;;;;;18.30;11.90;;;17.80;87.90;;;;;;5001677;28;20463;-48
2022/09/13 09:40:13;;;;;;;14.47;10.40;;;17.80;88.20;;;;;;4997099;28;20474;-48
2022/09/13 09:42:45;;;;;;;14.70;12.47;;;17.90;88.00;;;;;;5019244;28;20449;-48
2022/09/13 09:45:41;;;;;;;18.57;12.23;;;18.00;87.50;;;;;;4994720;28;20445;-48
2022/09/13 09:48:16;;;;;;;14.00;11.57;;;18.00;87.40;;;;;;5015894;28;20484;-48
2022/09/13 09:50:48;;;;;;;15.80;12.60;;;17.90;87.50;;;;;;5012066;28;20542;-48
2022/09/13 09:53:19;;;;;;;18.20;13.00;;;17.90;87.40;;;;;;4999299;28;20880;-48
2022/09/13 09:56:04;;;;;;;18.57;13.30;;;18.00;86.60;;;;;;5012265;28;20535;-48
2022/09/13 09:58:42;;;;;;;18.97;12.77;;;18.00;86.70;;;;;;5012361;28;20484;-48
2022/09/13 10:01:33;;;;;;;15.80;12.53;;;17.80;88.40;;;;;;5015442;28;20484;-48
2022/09/13 10:04:21;;;;;;;18.20;13.40;;;17.80;89.10;;;;;;5016750;28;20468;-48
2022/09/13 10:06:48;;;;;;;17.90;13.60;;;17.70;89.50;;;;;;5012144;28;20515;-48
2022/09/13 10:09:16;;;;;;;21.30;14.33;;;17.70;89.80;;;;;;5016042;28;20475;-48
2022/09/13 10:11:55;;;;;;;20.87;15.07;;;17.70;89.80;;;;;;5010809;28;20465;-48
2022/09/13 10:14:27;;;;;;;18.17;13.13;;;17.60;89.80;;;;;;5013573;28;20461;-47
2022/09/13 10:17:14;;;;;;;18.43;12.83;;;17.70;89.80;;;;;;5012375;28;20460;-48
2022/09/13 10:19:51;;;;;;;16.97;13.07;;;17.70;89.80;;;;;;5013684;28;20507;-48
2022/09/13 10:22:18;;;;;;;16.53;12.37;;;17.80;89.80;;;;;;5008978;28;20464;-48
2022/09/13 10:24:45;;;;;;;17.70;14.30;;;17.80;89.40;;;;;;5016691;28;20488;-48
2022/09/13 10:27:38;;;;;;;18.20;13.50;;;17.80;89.40;;;;;;5016482;28;20522;-50
2022/09/13 10:30:45;;;;;;;15.83;13.10;;;17.90;89.60;;;;;;5000904;28;20494;-50
2022/09/13 10:33:30;;;;;;;15.93;12.70;;;17.90;89.80;;;;;;5002777;28;20464;-50
2022/09/13 10:36:01;;;;;;;13.67;11.87;;;17.90;89.50;;;;;;4998670;28;20487;-50
2022/09/13 10:38:38;;;;;;;14.70;11.33;;;18.00;89.20;;;;;;5002782;28;20503;-50
2022/09/13 10:41:22;;;;;;;15.57;10.90;;;18.00;89.40;;;;;;5001772;28;20468;-50
2022/09/13 10:43:59;;;;;;;13.27;10.17;;;18.00;89.30;;;;;;4999096;28;20562;-49
2022/09/13 10:46:31;;;;;;;12.20;8.60;;;18.10;89.10;;;;;;4971329;28;20460;-48
2022/09/13 10:49:00;;;;;;;9.13;7.60;;;18.10;88.70;;;;;;5016205;28;20492;-48
2022/09/13 10:51:26;;;;;;;9.10;7.30;;;18.20;87.90;;;;;;4995985;28;20856;-48
2022/09/13 10:54:14;;;;;;;9.63;6.83;;;18.20;87.40;;;;;;5011213;28;20456;-48
2022/09/13 10:56:44;;;;;;;10.03;8.03;;;18.20;86.70;;;;;;5017175;28;20465;-48
2022/09/13 10:59:20;;;;;;;8.77;6.90;;;18.20;86.30;;;;;;5013924;28;20465;-48
2022/09/13 11:02:21;;;;;;;9.20;6.20;;;18.30;86.00;;;;;;4998401;28;20456;-48
2022/09/13 11:05:08;;;;;;;8.23;7.37;;;18.30;86.40;;;;;;5011451;28;20449;-48
2022/09/13 11:08:18;;;;;;;10.20;7.80;;;18.30;86.50;;;;;;5007016;28;20547;-50
2022/09/13 11:10:51;;;;;;;9.40;8.00;;;18.30;86.40;;;;;;5006334;28;20491;-50
2022/09/13 11:13:35;;;;;;;8.13;6.90;;;18.40;86.30;;;;;;5007898;28;20946;-49
2022/09/13 11:16:22;;;;;;;8.70;7.37;;;18.40;85.90;;;;;;5003829;28;20985;-50
2022/09/13 11:18:52;;;;;;;7.90;6.30;;;18.40;85.90;;;;;;5001121;28;20468;-50
2022/09/13 11:21:37;;;;;;;13.90;6.93;;;18.40;85.90;;;;;;5000709;28;20523;-49
2022/09/13 11:24:13;;;;;;;6.93;6.23;;;18.40;85.70;;;;;;5002443;28;20476;-49
2022/09/13 11:27:01;;;;;;;7.60;5.53;;;18.50;85.20;;;;;;5004014;28;20980;-49
2022/09/13 11:29:51;;;;;;;6.50;5.20;;;18.50;84.80;;;;;;5005148;28;20965;-50
2022/09/13 11:32:36;;;;;;;9.83;6.23;;;18.50;84.10;;;;;;4980849;28;20523;-49
2022/09/13 11:35:21;;;;;;;7.17;6.20;;;18.50;84.50;;;;;;5003079;28;21124;-47
2022/09/13 11:38:11;;;;;;;8.40;7.07;;;18.40;85.50;;;;;;4998533;28;21004;-47
2022/09/13 11:40:44;;;;;;;10.27;7.23;;;18.40;86.00;;;;;;4997322;28;20523;-47
2022/09/13 11:43:46;;;;;;;10.43;7.83;;;18.30;86.20;;;;;;4989461;28;20981;-47
2022/09/13 11:46:52;;;;;;;10.43;6.90;;;18.30;87.00;;;;;;5001404;28;20472;-48
2022/09/13 11:49:57;;;;;;;7.53;6.73;;;18.30;86.60;;;;;;4995371;28;20511;-47
2022/09/13 11:52:45;;;;;;;7.63;6.73;;;18.30;87.60;;;;;;5004544;28;20495;-47
2022/09/13 11:55:22;;;;;;;11.00;7.53;;;18.30;87.80;;;;;;5007419;28;20487;-48
2022/09/13 11:57:52;;;;;;;9.70;7.57;;;18.30;87.50;;;;;;5003625;28;21092;-48
2022/09/13 12:00:24;;;;;;;8.83;7.93;;;18.30;87.50;;;;;;4999953;28;20997;-47
2022/09/13 12:03:09;;;;;;;8.10;7.20;;;18.30;87.30;;;;;;5002443;28;21038;-48
2022/09/13 12:05:48;;;;;;;10.47;7.63;;;18.30;85.90;;;;;;5005577;28;20464;-48
2022/09/13 12:08:26;;;;;;;8.70;6.80;;;18.30;85.80;;;;;;4987674;28;20523;-48
2022/09/13 12:11:03;;;;;;;7.27;6.57;;;18.40;85.60;;;;;;4986012;28;21094;-48
2022/09/13 12:13:42;;;;;;;8.60;6.50;;;18.50;85.10;;;;;;4983579;28;20883;-48
2022/09/13 12:16:16;;;;;;;8.73;6.70;;;18.60;84.80;;;;;;4999829;28;20536;-48
2022/09/13 12:18:47;;;;;;;8.00;7.17;;;18.60;84.90;;;;;;4996688;28;20549;-48
2022/09/13 12:21:18;;;;;;;9.50;6.77;;;18.60;85.10;;;;;;4994128;28;21011;-48
2022/09/13 12:24:00;;;;;;;8.57;6.77;;;18.60;85.10;;;;;;5000579;28;20500;-48
2022/09/13 12:26:40;;;;;;;9.10;6.67;;;18.60;85.00;;;;;;5003629;28;20519;-48
2022/09/13 12:29:32;;;;;;;8.40;7.60;;;18.60;85.10;;;;;;5003535;28;21023;-48
2022/09/13 12:32:02;;;;;;;8.90;7.50;;;18.70;85.00;;;;;;5002880;28;20547;-48
2022/09/13 12:34:55;;;;;;;9.50;8.37;;;18.70;85.00;;;;;;5001237;28;20515;-47
2022/09/13 12:37:55;;;;;;;9.07;8.00;;;18.70;85.80;;;;;;5000444;28;20544;-47
2022/09/13 12:40:50;;;;;;;7.53;6.83;;;18.70;85.80;;;;;;5002291;28;20500;-48
2022/09/13 12:43:48;;;;;;;7.60;6.77;;;18.80;85.60;;;;;;5001513;28;20555;-47
2022/09/13 12:46:38;;;;;;;9.37;8.40;;;18.80;85.30;;;;;;4996534;28;20471;-48
2022/09/13 12:49:22;;;;;;;8.90;7.67;;;18.90;85.00;;;;;;4981210;28;21224;-48
2022/09/13 12:51:52;;;;;;;9.90;8.60;;;18.90;84.90;;;;;;4998400;28;20574;-48
2022/09/13 12:54:37;;;;;;;16.07;9.70;;;19.00;85.20;;;;;;4979458;28;20489;-48
2022/09/13 12:57:19;;;;;;;9.40;8.00;;;19.00;85.00;;;;;;4979902;28;20909;-48
2022/09/13 13:00:23;;;;;;;23.07;16.10;;;19.10;84.90;;;;;;4996623;28;20553;-47
2022/09/13 13:03:12;;;;;;;14.00;10.30;;;19.10;84.90;;;;;;5012069;28;20467;-48
2022/09/13 13:05:44;;;;;;;13.63;9.97;;;19.10;84.90;;;;;;5014260;28;20975;-46
2022/09/13 13:08:20;;;;;;;9.00;8.10;;;19.20;85.30;;;;;;5009132;28;20535;-49
2022/09/13 13:10:58;;;;;;;10.13;8.23;;;19.20;85.40;;;;;;5000217;28;20475;-49
2022/09/13 13:13:44;;;;;;;9.73;7.83;;;19.30;85.30;;;;;;4978638;28;20494;-49
2022/09/13 13:16:26;;;;;;;11.03;8.30;;;19.20;85.20;;;;;;5001053;28;20492;-49
2022/09/13 13:19:04;;;;;;;11.80;9.27;;;19.20;85.10;;;;;;5000049;28;20934;-49
2022/09/13 13:21:33;;;;;;;10.77;7.80;;;19.20;85.00;;;;;;4989168;28;20463;-49
2022/09/13 13:24:15;;;;;;;10.40;8.87;;;19.20;85.00;;;;;;4998660;28;20460;-49